SBOSBO VLC / LEVC
Speedbird OnlineSpeedbird Online VLC / LEVC

Valencia Airport
01:13 18.9°C

Location Valencia, Spain
Latitude: 39.4893
Longitude: -0.481625
Local Time 01:13 on 26 May 2024
UTC +2 hours (Europe/Madrid)
Currency £1 equals EUR 1.17
METAR LEVC 252230Z 01005KT CAVOK 20/16 Q1018 NOSIG
TAF TAF LEVC 251700Z 2518/2618 07010KT 9999 FEW020 TX27/2612Z TN16/2605Z BECMG 2523/2601 VRB04KT PROB40 TEMPO 2602/2608 BKN010 BECMG 2611/2613 08010KT
Weather As Of 26 May 2024 01:13
Description Clear sky
Wind 9 km/h from North (10°)
Cloud Cover 0%
Precipitation Rain: none, Snow: none
Sunrise 06:39
Sunset 21:18
NOTAM 14 active NOTAM
Rotations During the last 90 days there were
76 flights from LHR
78 flights to LHR
Lounges Joan Olivert Lounge, -
Web Airport Website | Wikipedia
Codes IATA: VLC
ICAO: LEVC
Altitude 73 Meter / 240 Feet
Distance 1,337 KM / 831 Miles
from London.
Runways
RunwayLength (m)Surface
041644Asphalt
122700Asphalt
221644Asphalt
302700Asphalt
Radio
TypeDescriptionFrequency
APPAPP120.1
ATISATIS121.075
GNDGND121.7
TWRTWR118.55
Live ATC



Support Speedbird Online

© 2017-2024 Speedbird Online